sensor_id;sensor_type;location;lat;lon;timestamp;temperature;humidity
12156;DHT22;6141;49.092;8.516;2023-03-03T00:01:55;5.40;36.40
12156;DHT22;6141;49.092;8.516;2023-03-03T00:04:23;5.40;36.80
12156;DHT22;6141;49.092;8.516;2023-03-03T00:06:51;5.60;35.70
12156;DHT22;6141;49.092;8.516;2023-03-03T00:09:19;5.50;36.20
12156;DHT22;6141;49.092;8.516;2023-03-03T00:11:48;5.40;36.90
12156;DHT22;6141;49.092;8.516;2023-03-03T00:14:27;5.40;36.50
12156;DHT22;6141;49.092;8.516;2023-03-03T00:16:58;5.30;36.90
12156;DHT22;6141;49.092;8.516;2023-03-03T00:19:28;5.20;36.80
12156;DHT22;6141;49.092;8.516;2023-03-03T00:22:06;5.30;36.40
12156;DHT22;6141;49.092;8.516;2023-03-03T00:24:41;5.40;35.70
12156;DHT22;6141;49.092;8.516;2023-03-03T00:27:15;5.50;36.10
12156;DHT22;6141;49.092;8.516;2023-03-03T00:29:45;5.60;35.70
12156;DHT22;6141;49.092;8.516;2023-03-03T00:32:20;5.60;35.30
12156;DHT22;6141;49.092;8.516;2023-03-03T00:34:49;5.20;35.60
12156;DHT22;6141;49.092;8.516;2023-03-03T00:37:20;5.00;36.40
12156;DHT22;6141;49.092;8.516;2023-03-03T00:39:49;5.00;36.40
12156;DHT22;6141;49.092;8.516;2023-03-03T00:42:17;4.80;37.70
12156;DHT22;6141;49.092;8.516;2023-03-03T00:44:46;4.70;37.90
12156;DHT22;6141;49.092;8.516;2023-03-03T00:47:26;4.70;38.20
12156;DHT22;6141;49.092;8.516;2023-03-03T00:52:44;4.60;38.70
12156;DHT22;6141;49.092;8.516;2023-03-03T00:55:13;4.60;38.20
12156;DHT22;6141;49.092;8.516;2023-03-03T00:57:41;4.60;39.10
12156;DHT22;6141;49.092;8.516;2023-03-03T01:00:11;4.70;38.40
12156;DHT22;6141;49.092;8.516;2023-03-03T01:02:42;4.70;38.30
12156;DHT22;6141;49.092;8.516;2023-03-03T01:05:15;4.70;38.20
12156;DHT22;6141;49.092;8.516;2023-03-03T01:07:43;4.70;38.00
12156;DHT22;6141;49.092;8.516;2023-03-03T01:10:11;4.70;37.30
12156;DHT22;6141;49.092;8.516;2023-03-03T01:12:39;4.70;37.50
12156;DHT22;6141;49.092;8.516;2023-03-03T01:15:08;4.80;36.90
12156;DHT22;6141;49.092;8.516;2023-03-03T01:17:37;5.00;36.30
12156;DHT22;6141;49.092;8.516;2023-03-03T01:20:10;5.00;36.40
12156;DHT22;6141;49.092;8.516;2023-03-03T01:22:38;4.90;36.90
12156;DHT22;6141;49.092;8.516;2023-03-03T01:25:08;4.80;36.70
12156;DHT22;6141;49.092;8.516;2023-03-03T01:27:36;4.80;36.70
12156;DHT22;6141;49.092;8.516;2023-03-03T01:30:05;4.70;38.00
12156;DHT22;6141;49.092;8.516;2023-03-03T01:32:34;4.80;37.60
12156;DHT22;6141;49.092;8.516;2023-03-03T01:35:02;4.60;37.10
12156;DHT22;6141;49.092;8.516;2023-03-03T01:37:31;4.40;37.30
12156;DHT22;6141;49.092;8.516;2023-03-03T01:40:02;4.20;38.80
12156;DHT22;6141;49.092;8.516;2023-03-03T01:42:30;4.00;40.00
12156;DHT22;6141;49.092;8.516;2023-03-03T01:47:51;4.10;40.10
12156;DHT22;6141;49.092;8.516;2023-03-03T01:50:25;4.10;40.10
12156;DHT22;6141;49.092;8.516;2023-03-03T01:52:56;4.20;40.20
12156;DHT22;6141;49.092;8.516;2023-03-03T01:55:27;4.30;39.50
12156;DHT22;6141;49.092;8.516;2023-03-03T01:57:57;4.40;39.50
12156;DHT22;6141;49.092;8.516;2023-03-03T02:00:26;4.60;38.60
12156;DHT22;6141;49.092;8.516;2023-03-03T02:02:56;4.60;37.40
12156;DHT22;6141;49.092;8.516;2023-03-03T02:05:24;4.50;37.30
12156;DHT22;6141;49.092;8.516;2023-03-03T02:07:52;4.60;37.60
12156;DHT22;6141;49.092;8.516;2023-03-03T02:10:22;4.80;36.60
12156;DHT22;6141;49.092;8.516;2023-03-03T02:12:52;4.80;36.40
12156;DHT22;6141;49.092;8.516;2023-03-03T02:15:22;4.50;36.10
12156;DHT22;6141;49.092;8.516;2023-03-03T02:17:51;4.50;35.30
12156;DHT22;6141;49.092;8.516;2023-03-03T02:20:25;4.30;36.20
12156;DHT22;6141;49.092;8.516;2023-03-03T02:22:56;4.10;38.10
12156;DHT22;6141;49.092;8.516;2023-03-03T02:25:28;4.10;37.90
12156;DHT22;6141;49.092;8.516;2023-03-03T02:27:59;4.20;36.80
12156;DHT22;6141;49.092;8.516;2023-03-03T02:30:27;4.30;36.90
12156;DHT22;6141;49.092;8.516;2023-03-03T02:32:55;4.40;36.50
12156;DHT22;6141;49.092;8.516;2023-03-03T02:35:24;4.40;36.20
12156;DHT22;6141;49.092;8.516;2023-03-03T02:37:52;4.30;36.10
12156;DHT22;6141;49.092;8.516;2023-03-03T02:40:22;4.30;35.90
12156;DHT22;6141;49.092;8.516;2023-03-03T02:42:52;4.40;35.70
12156;DHT22;6141;49.092;8.516;2023-03-03T02:45:24;4.40;35.70
12156;DHT22;6141;49.092;8.516;2023-03-03T02:47:52;4.40;35.70
12156;DHT22;6141;49.092;8.516;2023-03-03T02:50:21;4.30;36.00
12156;DHT22;6141;49.092;8.516;2023-03-03T02:52:50;4.00;35.90
12156;DHT22;6141;49.092;8.516;2023-03-03T02:55:19;3.70;36.70
12156;DHT22;6141;49.092;8.516;2023-03-03T02:57:48;3.70;38.40
12156;DHT22;6141;49.092;8.516;2023-03-03T03:00:16;3.70;38.40
12156;DHT22;6141;49.092;8.516;2023-03-03T03:02:46;3.60;39.70
12156;DHT22;6141;49.092;8.516;2023-03-03T03:05:14;3.60;39.70
12156;DHT22;6141;49.092;8.516;2023-03-03T03:07:42;3.60;39.70
12156;DHT22;6141;49.092;8.516;2023-03-03T03:10:10;3.60;39.70
12156;DHT22;6141;49.092;8.516;2023-03-03T03:12:40;3.80;38.90
12156;DHT22;6141;49.092;8.516;2023-03-03T03:15:10;4.00;37.60
12156;DHT22;6141;49.092;8.516;2023-03-03T03:17:40;4.00;37.30
12156;DHT22;6141;49.092;8.516;2023-03-03T03:20:13;4.00;36.70
12156;DHT22;6141;49.092;8.516;2023-03-03T03:22:44;3.90;37.50
12156;DHT22;6141;49.092;8.516;2023-03-03T03:25:14;3.90;37.80
12156;DHT22;6141;49.092;8.516;2023-03-03T03:27:42;3.80;37.30
12156;DHT22;6141;49.092;8.516;2023-03-03T03:30:10;3.80;37.40
12156;DHT22;6141;49.092;8.516;2023-03-03T03:32:39;3.70;38.20
12156;DHT22;6141;49.092;8.516;2023-03-03T03:35:08;3.50;37.30
12156;DHT22;6141;49.092;8.516;2023-03-03T03:37:38;3.60;38.20
12156;DHT22;6141;49.092;8.516;2023-03-03T03:40:06;3.70;38.40
12156;DHT22;6141;49.092;8.516;2023-03-03T03:42:35;3.60;38.20
12156;DHT22;6141;49.092;8.516;2023-03-03T03:45:06;3.60;37.90
12156;DHT22;6141;49.092;8.516;2023-03-03T03:47:34;3.30;39.40
12156;DHT22;6141;49.092;8.516;2023-03-03T03:50:03;3.20;39.30
12156;DHT22;6141;49.092;8.516;2023-03-03T03:52:31;2.90;41.00
12156;DHT22;6141;49.092;8.516;2023-03-03T03:55:02;2.90;40.80
12156;DHT22;6141;49.092;8.516;2023-03-03T03:57:30;2.60;41.00
12156;DHT22;6141;49.092;8.516;2023-03-03T03:59:58;2.60;41.90
12156;DHT22;6141;49.092;8.516;2023-03-03T04:02:28;2.80;40.60
12156;DHT22;6141;49.092;8.516;2023-03-03T04:04:56;3.00;39.90
12156;DHT22;6141;49.092;8.516;2023-03-03T04:07:25;2.90;39.90
12156;DHT22;6141;49.092;8.516;2023-03-03T04:09:53;2.90;41.30
12156;DHT22;6141;49.092;8.516;2023-03-03T04:12:23;3.10;40.00
12156;DHT22;6141;49.092;8.516;2023-03-03T04:14:52;3.30;39.40
12156;DHT22;6141;49.092;8.516;2023-03-03T04:17:21;3.40;38.80
12156;DHT22;6141;49.092;8.516;2023-03-03T04:19:51;3.40;39.50
12156;DHT22;6141;49.092;8.516;2023-03-03T04:22:20;3.40;38.30
12156;DHT22;6141;49.092;8.516;2023-03-03T04:24:48;3.30;37.20
12156;DHT22;6141;49.092;8.516;2023-03-03T04:27:16;3.10;38.40
12156;DHT22;6141;49.092;8.516;2023-03-03T04:29:46;3.20;38.50
12156;DHT22;6141;49.092;8.516;2023-03-03T04:32:14;3.20;38.00
12156;DHT22;6141;49.092;8.516;2023-03-03T04:34:45;3.30;38.40
12156;DHT22;6141;49.092;8.516;2023-03-03T04:37:25;3.10;38.60
12156;DHT22;6141;49.092;8.516;2023-03-03T04:39:53;3.10;37.50
12156;DHT22;6141;49.092;8.516;2023-03-03T04:42:21;2.80;37.10
12156;DHT22;6141;49.092;8.516;2023-03-03T04:44:51;2.70;38.60
12156;DHT22;6141;49.092;8.516;2023-03-03T04:47:19;2.60;38.80
12156;DHT22;6141;49.092;8.516;2023-03-03T04:49:47;2.60;39.70
12156;DHT22;6141;49.092;8.516;2023-03-03T04:52:15;2.50;40.10
12156;DHT22;6141;49.092;8.516;2023-03-03T04:54:43;2.40;40.80
12156;DHT22;6141;49.092;8.516;2023-03-03T04:57:12;2.30;40.70
12156;DHT22;6141;49.092;8.516;2023-03-03T04:59:40;2.40;41.30
12156;DHT22;6141;49.092;8.516;2023-03-03T05:02:10;2.40;40.40
12156;DHT22;6141;49.092;8.516;2023-03-03T05:04:38;2.40;40.60
12156;DHT22;6141;49.092;8.516;2023-03-03T05:07:06;2.40;40.30
12156;DHT22;6141;49.092;8.516;2023-03-03T05:09:35;2.50;40.10
12156;DHT22;6141;49.092;8.516;2023-03-03T05:12:03;2.60;40.00
12156;DHT22;6141;49.092;8.516;2023-03-03T05:14:32;2.70;39.80
12156;DHT22;6141;49.092;8.516;2023-03-03T05:17:01;2.70;38.90
12156;DHT22;6141;49.092;8.516;2023-03-03T05:19:31;2.70;39.50
12156;DHT22;6141;49.092;8.516;2023-03-03T05:22:01;2.80;39.30
12156;DHT22;6141;49.092;8.516;2023-03-03T05:24:29;3.00;39.10
12156;DHT22;6141;49.092;8.516;2023-03-03T05:26:57;2.90;38.80
12156;DHT22;6141;49.092;8.516;2023-03-03T05:29:26;2.90;38.50
12156;DHT22;6141;49.092;8.516;2023-03-03T05:31:54;3.10;37.90
12156;DHT22;6141;49.092;8.516;2023-03-03T05:34:22;3.20;37.60
12156;DHT22;6141;49.092;8.516;2023-03-03T05:36:52;3.10;37.10
12156;DHT22;6141;49.092;8.516;2023-03-03T05:39:20;3.30;38.10
12156;DHT22;6141;49.092;8.516;2023-03-03T05:41:48;3.30;38.60
12156;DHT22;6141;49.092;8.516;2023-03-03T05:44:16;3.20;38.50
12156;DHT22;6141;49.092;8.516;2023-03-03T05:46:46;3.20;38.20
12156;DHT22;6141;49.092;8.516;2023-03-03T05:49:14;3.10;39.20
12156;DHT22;6141;49.092;8.516;2023-03-03T05:51:42;3.10;39.20
12156;DHT22;6141;49.092;8.516;2023-03-03T05:54:12;3.10;39.20
12156;DHT22;6141;49.092;8.516;2023-03-03T05:56:40;3.30;39.40
12156;DHT22;6141;49.092;8.516;2023-03-03T05:59:08;3.40;38.60
12156;DHT22;6141;49.092;8.516;2023-03-03T06:01:36;3.30;39.30
12156;DHT22;6141;49.092;8.516;2023-03-03T06:04:05;3.40;39.50
12156;DHT22;6141;49.092;8.516;2023-03-03T06:06:33;3.40;39.50
12156;DHT22;6141;49.092;8.516;2023-03-03T06:09:01;3.30;38.90
12156;DHT22;6141;49.092;8.516;2023-03-03T06:11:31;3.10;40.00
12156;DHT22;6141;49.092;8.516;2023-03-03T06:13:59;3.00;39.10
12156;DHT22;6141;49.092;8.516;2023-03-03T06:16:27;3.10;39.20
12156;DHT22;6141;49.092;8.516;2023-03-03T06:18:55;3.10;39.20
12156;DHT22;6141;49.092;8.516;2023-03-03T06:21:23;2.90;40.40
12156;DHT22;6141;49.092;8.516;2023-03-03T06:23:52;2.80;42.20
12156;DHT22;6141;49.092;8.516;2023-03-03T06:26:20;2.60;42.30
12156;DHT22;6141;49.092;8.516;2023-03-03T06:28:50;2.60;42.80
12156;DHT22;6141;49.092;8.516;2023-03-03T06:31:20;2.70;42.80
12156;DHT22;6141;49.092;8.516;2023-03-03T06:33:49;2.80;42.70
12156;DHT22;6141;49.092;8.516;2023-03-03T06:36:17;2.70;43.30
12156;DHT22;6141;49.092;8.516;2023-03-03T06:38:45;2.60;44.20
12156;DHT22;6141;49.092;8.516;2023-03-03T06:41:13;2.60;44.50
12156;DHT22;6141;49.092;8.516;2023-03-03T06:43:41;2.70;44.90
12156;DHT22;6141;49.092;8.516;2023-03-03T06:46:11;2.80;44.80
12156;DHT22;6141;49.092;8.516;2023-03-03T06:48:39;2.80;45.00
12156;DHT22;6141;49.092;8.516;2023-03-03T06:51:14;2.80;45.50
12156;DHT22;6141;49.092;8.516;2023-03-03T06:53:44;2.80;45.70
12156;DHT22;6141;49.092;8.516;2023-03-03T06:56:12;2.90;45.90
12156;DHT22;6141;49.092;8.516;2023-03-03T06:58:40;2.90;46.30
12156;DHT22;6141;49.092;8.516;2023-03-03T07:01:12;2.80;46.90
12156;DHT22;6141;49.092;8.516;2023-03-03T07:03:43;2.70;47.80
12156;DHT22;6141;49.092;8.516;2023-03-03T07:06:15;2.80;48.50
12156;DHT22;6141;49.092;8.516;2023-03-03T07:08:45;3.00;48.20
12156;DHT22;6141;49.092;8.516;2023-03-03T07:11:15;3.10;47.60
12156;DHT22;6141;49.092;8.516;2023-03-03T07:13:46;3.20;47.40
12156;DHT22;6141;49.092;8.516;2023-03-03T07:16:16;3.50;46.20
12156;DHT22;6141;49.092;8.516;2023-03-03T07:18:46;3.60;45.20
12156;DHT22;6141;49.092;8.516;2023-03-03T07:21:17;3.80;44.50
12156;DHT22;6141;49.092;8.516;2023-03-03T07:23:46;3.90;44.20
12156;DHT22;6141;49.092;8.516;2023-03-03T07:26:15;4.00;43.10
12156;DHT22;6141;49.092;8.516;2023-03-03T07:28:44;4.20;43.90
12156;DHT22;6141;49.092;8.516;2023-03-03T07:34:14;4.30;45.50
12156;DHT22;6141;49.092;8.516;2023-03-03T07:36:44;4.20;44.60
12156;DHT22;6141;49.092;8.516;2023-03-03T07:39:17;4.50;44.10
12156;DHT22;6141;49.092;8.516;2023-03-03T07:41:47;4.60;43.70
12156;DHT22;6141;49.092;8.516;2023-03-03T07:44:16;4.60;43.70
12156;DHT22;6141;49.092;8.516;2023-03-03T07:46:46;4.70;43.60
12156;DHT22;6141;49.092;8.516;2023-03-03T07:49:21;4.70;43.30
12156;DHT22;6141;49.092;8.516;2023-03-03T07:51:51;4.70;43.20
12156;DHT22;6141;49.092;8.516;2023-03-03T07:54:25;4.70;44.10
12156;DHT22;6141;49.092;8.516;2023-03-03T07:56:54;4.70;44.20
12156;DHT22;6141;49.092;8.516;2023-03-03T07:59:24;4.70;44.40
12156;DHT22;6141;49.092;8.516;2023-03-03T08:01:52;4.70;44.30
12156;DHT22;6141;49.092;8.516;2023-03-03T08:04:27;4.60;45.20
12156;DHT22;6141;49.092;8.516;2023-03-03T08:06:56;4.60;45.00
12156;DHT22;6141;49.092;8.516;2023-03-03T08:09:38;4.60;44.60
12156;DHT22;6141;49.092;8.516;2023-03-03T08:14:52;4.60;45.70
12156;DHT22;6141;49.092;8.516;2023-03-03T08:17:21;4.60;45.90
12156;DHT22;6141;49.092;8.516;2023-03-03T08:19:52;4.60;46.50
12156;DHT22;6141;49.092;8.516;2023-03-03T08:22:24;4.60;46.70
12156;DHT22;6141;49.092;8.516;2023-03-03T08:24:56;4.70;47.70
12156;DHT22;6141;49.092;8.516;2023-03-03T08:27:24;4.90;47.20
12156;DHT22;6141;49.092;8.516;2023-03-03T08:29:54;4.90;47.00
12156;DHT22;6141;49.092;8.516;2023-03-03T08:32:23;5.00;46.60
12156;DHT22;6141;49.092;8.516;2023-03-03T08:34:52;5.20;46.20
12156;DHT22;6141;49.092;8.516;2023-03-03T08:37:21;5.30;45.30
12156;DHT22;6141;49.092;8.516;2023-03-03T08:39:49;5.40;44.70
12156;DHT22;6141;49.092;8.516;2023-03-03T08:42:17;5.40;44.40
12156;DHT22;6141;49.092;8.516;2023-03-03T08:44:45;5.60;44.00
12156;DHT22;6141;49.092;8.516;2023-03-03T08:47:13;5.80;43.20
12156;DHT22;6141;49.092;8.516;2023-03-03T08:49:42;6.00;43.30
12156;DHT22;6141;49.092;8.516;2023-03-03T08:52:11;6.30;42.20
12156;DHT22;6141;49.092;8.516;2023-03-03T08:54:39;6.50;42.40
12156;DHT22;6141;49.092;8.516;2023-03-03T08:57:07;6.50;41.60
12156;DHT22;6141;49.092;8.516;2023-03-03T08:59:36;6.50;41.10
12156;DHT22;6141;49.092;8.516;2023-03-03T09:02:04;6.60;40.90
12156;DHT22;6141;49.092;8.516;2023-03-03T09:04:33;6.50;40.00
12156;DHT22;6141;49.092;8.516;2023-03-03T09:07:01;6.50;40.00
12156;DHT22;6141;49.092;8.516;2023-03-03T09:09:31;6.40;40.20
12156;DHT22;6141;49.092;8.516;2023-03-03T09:12:02;6.40;39.70
12156;DHT22;6141;49.092;8.516;2023-03-03T09:14:34;6.40;40.30
12156;DHT22;6141;49.092;8.516;2023-03-03T09:17:07;6.40;40.40
12156;DHT22;6141;49.092;8.516;2023-03-03T09:19:42;6.40;40.50
12156;DHT22;6141;49.092;8.516;2023-03-03T09:22:17;6.40;40.90
12156;DHT22;6141;49.092;8.516;2023-03-03T09:24:47;6.50;41.30
12156;DHT22;6141;49.092;8.516;2023-03-03T09:27:17;6.60;40.70
12156;DHT22;6141;49.092;8.516;2023-03-03T09:29:46;6.70;40.40
12156;DHT22;6141;49.092;8.516;2023-03-03T09:32:20;6.70;39.10
12156;DHT22;6141;49.092;8.516;2023-03-03T09:34:49;6.90;39.00
12156;DHT22;6141;49.092;8.516;2023-03-03T09:37:20;7.00;39.70
12156;DHT22;6141;49.092;8.516;2023-03-03T09:39:51;7.20;38.70
12156;DHT22;6141;49.092;8.516;2023-03-03T09:42:22;7.40;37.70
12156;DHT22;6141;49.092;8.516;2023-03-03T09:44:59;7.60;37.20
12156;DHT22;6141;49.092;8.516;2023-03-03T09:47:43;7.70;36.60
12156;DHT22;6141;49.092;8.516;2023-03-03T09:50:17;7.70;36.20
12156;DHT22;6141;49.092;8.516;2023-03-03T09:52:51;7.80;35.40
12156;DHT22;6141;49.092;8.516;2023-03-03T09:55:28;7.80;34.80
12156;DHT22;6141;49.092;8.516;2023-03-03T09:58:06;7.80;35.70
12156;DHT22;6141;49.092;8.516;2023-03-03T10:00:46;8.00;34.20
12156;DHT22;6141;49.092;8.516;2023-03-03T10:03:30;8.10;34.30
12156;DHT22;6141;49.092;8.516;2023-03-03T10:06:08;8.10;34.40
12156;DHT22;6141;49.092;8.516;2023-03-03T10:08:44;8.20;32.80
12156;DHT22;6141;49.092;8.516;2023-03-03T10:11:18;8.40;32.70
12156;DHT22;6141;49.092;8.516;2023-03-03T10:13:55;8.60;33.20
12156;DHT22;6141;49.092;8.516;2023-03-03T10:16:42;8.70;33.00
12156;DHT22;6141;49.092;8.516;2023-03-03T10:19:20;8.70;31.80
12156;DHT22;6141;49.092;8.516;2023-03-03T10:21:52;8.80;32.00
12156;DHT22;6141;49.092;8.516;2023-03-03T10:24:25;9.00;32.10
12156;DHT22;6141;49.092;8.516;2023-03-03T10:27:07;9.00;31.70
12156;DHT22;6141;49.092;8.516;2023-03-03T10:29:43;9.10;31.60
12156;DHT22;6141;49.092;8.516;2023-03-03T10:32:25;9.20;30.70
12156;DHT22;6141;49.092;8.516;2023-03-03T10:35:01;9.30;31.50
12156;DHT22;6141;49.092;8.516;2023-03-03T10:37:35;9.40;29.90
12156;DHT22;6141;49.092;8.516;2023-03-03T10:40:12;9.30;30.00
12156;DHT22;6141;49.092;8.516;2023-03-03T10:43:00;9.40;30.90
12156;DHT22;6141;49.092;8.516;2023-03-03T10:45:44;9.70;30.40
12156;DHT22;6141;49.092;8.516;2023-03-03T10:48:26;9.60;28.40
12156;DHT22;6141;49.092;8.516;2023-03-03T10:51:00;9.60;29.40
12156;DHT22;6141;49.092;8.516;2023-03-03T10:53:33;9.70;29.90
12156;DHT22;6141;49.092;8.516;2023-03-03T10:56:13;9.70;28.40
12156;DHT22;6141;49.092;8.516;2023-03-03T10:58:45;9.80;28.10
12156;DHT22;6141;49.092;8.516;2023-03-03T11:01:20;9.90;28.60
12156;DHT22;6141;49.092;8.516;2023-03-03T11:06:36;10.20;26.40
12156;DHT22;6141;49.092;8.516;2023-03-03T11:09:09;10.30;26.20
12156;DHT22;6141;49.092;8.516;2023-03-03T11:11:42;10.60;26.20
12156;DHT22;6141;49.092;8.516;2023-03-03T11:14:17;10.60;26.70
12156;DHT22;6141;49.092;8.516;2023-03-03T11:16:50;10.80;26.10
12156;DHT22;6141;49.092;8.516;2023-03-03T11:19:31;10.80;25.60
12156;DHT22;6141;49.092;8.516;2023-03-03T11:22:04;10.90;25.40
12156;DHT22;6141;49.092;8.516;2023-03-03T11:24:40;11.10;25.00
12156;DHT22;6141;49.092;8.516;2023-03-03T11:27:15;11.20;24.50
12156;DHT22;6141;49.092;8.516;2023-03-03T11:29:51;11.10;24.40
12156;DHT22;6141;49.092;8.516;2023-03-03T11:32:25;11.10;25.10
12156;DHT22;6141;49.092;8.516;2023-03-03T11:35:00;11.30;23.90
12156;DHT22;6141;49.092;8.516;2023-03-03T11:37:34;11.30;23.70
12156;DHT22;6141;49.092;8.516;2023-03-03T11:40:09;11.50;23.80
12156;DHT22;6141;49.092;8.516;2023-03-03T11:42:41;11.60;23.70
12156;DHT22;6141;49.092;8.516;2023-03-03T11:45:16;11.70;23.40
12156;DHT22;6141;49.092;8.516;2023-03-03T11:47:46;11.50;23.70
12156;DHT22;6141;49.092;8.516;2023-03-03T11:50:18;11.60;24.40
12156;DHT22;6141;49.092;8.516;2023-03-03T11:52:49;11.60;23.30
12156;DHT22;6141;49.092;8.516;2023-03-03T11:55:19;11.60;23.40
12156;DHT22;6141;49.092;8.516;2023-03-03T11:57:51;11.70;23.90
12156;DHT22;6141;49.092;8.516;2023-03-03T12:00:26;11.80;23.00
12156;DHT22;6141;49.092;8.516;2023-03-03T12:03:01;12.00;23.10
12156;DHT22;6141;49.092;8.516;2023-03-03T12:05:47;12.10;22.90
12156;DHT22;6141;49.092;8.516;2023-03-03T12:08:20;12.40;23.40
12156;DHT22;6141;49.092;8.516;2023-03-03T12:10:50;12.60;22.10
12156;DHT22;6141;49.092;8.516;2023-03-03T12:13:21;12.30;22.10
12156;DHT22;6141;49.092;8.516;2023-03-03T12:15:54;12.30;22.00
12156;DHT22;6141;49.092;8.516;2023-03-03T12:18:36;12.60;22.20
12156;DHT22;6141;49.092;8.516;2023-03-03T12:21:14;12.80;21.50
12156;DHT22;6141;49.092;8.516;2023-03-03T12:23:51;12.70;20.90
12156;DHT22;6141;49.092;8.516;2023-03-03T12:26:24;12.70;21.30
12156;DHT22;6141;49.092;8.516;2023-03-03T12:28:56;12.70;21.70
12156;DHT22;6141;49.092;8.516;2023-03-03T12:31:30;13.00;21.20
12156;DHT22;6141;49.092;8.516;2023-03-03T12:34:03;13.30;21.30
12156;DHT22;6141;49.092;8.516;2023-03-03T12:39:19;13.50;20.40
12156;DHT22;6141;49.092;8.516;2023-03-03T12:42:03;13.30;19.90
12156;DHT22;6141;49.092;8.516;2023-03-03T12:44:36;13.20;20.00
12156;DHT22;6141;49.092;8.516;2023-03-03T12:47:08;13.20;21.50
12156;DHT22;6141;49.092;8.516;2023-03-03T12:49:43;13.40;21.40
12156;DHT22;6141;49.092;8.516;2023-03-03T12:52:25;13.60;20.00
12156;DHT22;6141;49.092;8.516;2023-03-03T12:54:58;13.70;20.50
12156;DHT22;6141;49.092;8.516;2023-03-03T12:57:32;13.70;20.00
12156;DHT22;6141;49.092;8.516;2023-03-03T13:00:11;13.70;20.10
12156;DHT22;6141;49.092;8.516;2023-03-03T13:02:44;13.70;20.50
12156;DHT22;6141;49.092;8.516;2023-03-03T13:05:17;13.50;21.30
12156;DHT22;6141;49.092;8.516;2023-03-03T13:07:46;13.50;21.50
12156;DHT22;6141;49.092;8.516;2023-03-03T13:10:17;13.50;20.90
12156;DHT22;6141;49.092;8.516;2023-03-03T13:12:49;13.60;21.40
12156;DHT22;6141;49.092;8.516;2023-03-03T13:15:20;13.70;20.30
12156;DHT22;6141;49.092;8.516;2023-03-03T13:18:02;13.70;20.10
12156;DHT22;6141;49.092;8.516;2023-03-03T13:20:36;13.50;20.30
12156;DHT22;6141;49.092;8.516;2023-03-03T13:23:07;13.30;21.10
12156;DHT22;6141;49.092;8.516;2023-03-03T13:25:46;13.10;21.10
12156;DHT22;6141;49.092;8.516;2023-03-03T13:28:20;13.10;21.30
12156;DHT22;6141;49.092;8.516;2023-03-03T13:30:51;12.90;21.20
12156;DHT22;6141;49.092;8.516;2023-03-03T13:33:24;13.10;21.70
12156;DHT22;6141;49.092;8.516;2023-03-03T13:35:54;13.20;21.40
12156;DHT22;6141;49.092;8.516;2023-03-03T13:38:24;13.60;20.60
12156;DHT22;6141;49.092;8.516;2023-03-03T13:40:56;13.70;20.80
12156;DHT22;6141;49.092;8.516;2023-03-03T13:43:29;13.70;20.60
12156;DHT22;6141;49.092;8.516;2023-03-03T13:46:00;13.70;21.00
12156;DHT22;6141;49.092;8.516;2023-03-03T13:48:39;13.80;21.00
12156;DHT22;6141;49.092;8.516;2023-03-03T13:51:13;14.00;20.10
12156;DHT22;6141;49.092;8.516;2023-03-03T13:53:48;14.10;20.10
12156;DHT22;6141;49.092;8.516;2023-03-03T13:56:23;14.10;19.60
12156;DHT22;6141;49.092;8.516;2023-03-03T13:58:59;14.10;20.50
12156;DHT22;6141;49.092;8.516;2023-03-03T14:01:37;14.00;20.50
12156;DHT22;6141;49.092;8.516;2023-03-03T14:04:13;14.00;19.90
12156;DHT22;6141;49.092;8.516;2023-03-03T14:06:48;14.10;19.70
12156;DHT22;6141;49.092;8.516;2023-03-03T14:09:29;14.20;19.60
12156;DHT22;6141;49.092;8.516;2023-03-03T14:12:03;14.10;20.00
12156;DHT22;6141;49.092;8.516;2023-03-03T14:14:37;14.00;19.50
12156;DHT22;6141;49.092;8.516;2023-03-03T14:17:11;14.00;19.50
12156;DHT22;6141;49.092;8.516;2023-03-03T14:19:43;14.30;19.00
12156;DHT22;6141;49.092;8.516;2023-03-03T14:22:16;14.20;20.20
12156;DHT22;6141;49.092;8.516;2023-03-03T14:24:59;14.40;20.10
12156;DHT22;6141;49.092;8.516;2023-03-03T14:27:33;14.30;19.60
12156;DHT22;6141;49.092;8.516;2023-03-03T14:32:57;14.10;19.60
12156;DHT22;6141;49.092;8.516;2023-03-03T14:35:29;14.20;19.70
12156;DHT22;6141;49.092;8.516;2023-03-03T14:38:00;14.20;19.60
12156;DHT22;6141;49.092;8.516;2023-03-03T14:40:29;14.20;20.20
12156;DHT22;6141;49.092;8.516;2023-03-03T14:42:59;14.20;19.70
12156;DHT22;6141;49.092;8.516;2023-03-03T14:45:33;14.30;19.70
12156;DHT22;6141;49.092;8.516;2023-03-03T14:48:09;14.40;19.80
12156;DHT22;6141;49.092;8.516;2023-03-03T14:50:39;14.40;19.80
12156;DHT22;6141;49.092;8.516;2023-03-03T14:53:10;14.50;19.50
12156;DHT22;6141;49.092;8.516;2023-03-03T14:55:40;14.70;20.00
12156;DHT22;6141;49.092;8.516;2023-03-03T14:58:25;14.70;19.10
12156;DHT22;6141;49.092;8.516;2023-03-03T15:01:14;14.80;18.60
12156;DHT22;6141;49.092;8.516;2023-03-03T15:03:46;14.90;19.10
12156;DHT22;6141;49.092;8.516;2023-03-03T15:06:32;14.90;18.80
12156;DHT22;6141;49.092;8.516;2023-03-03T15:11:49;14.50;19.20
12156;DHT22;6141;49.092;8.516;2023-03-03T15:14:19;14.40;19.50
12156;DHT22;6141;49.092;8.516;2023-03-03T15:16:47;14.40;19.80
12156;DHT22;6141;49.092;8.516;2023-03-03T15:22:19;14.30;19.10
12156;DHT22;6141;49.092;8.516;2023-03-03T15:24:50;14.20;19.60
12156;DHT22;6141;49.092;8.516;2023-03-03T15:27:22;14.20;19.60
12156;DHT22;6141;49.092;8.516;2023-03-03T15:29:54;14.20;19.30
12156;DHT22;6141;49.092;8.516;2023-03-03T15:32:25;14.20;19.90
12156;DHT22;6141;49.092;8.516;2023-03-03T15:35:00;14.40;19.80
12156;DHT22;6141;49.092;8.516;2023-03-03T15:37:38;14.50;19.00
12156;DHT22;6141;49.092;8.516;2023-03-03T15:40:13;14.40;20.10
12156;DHT22;6141;49.092;8.516;2023-03-03T15:42:45;14.20;19.60
12156;DHT22;6141;49.092;8.516;2023-03-03T15:45:16;14.10;19.60
12156;DHT22;6141;49.092;8.516;2023-03-03T15:47:55;14.00;20.00
12156;DHT22;6141;49.092;8.516;2023-03-03T15:50:27;13.70;20.10
12156;DHT22;6141;49.092;8.516;2023-03-03T15:53:03;13.50;20.50
12156;DHT22;6141;49.092;8.516;2023-03-03T15:55:37;13.40;20.70
12156;DHT22;6141;49.092;8.516;2023-03-03T15:58:19;13.50;20.80
12156;DHT22;6141;49.092;8.516;2023-03-03T16:00:55;13.40;20.80
12156;DHT22;6141;49.092;8.516;2023-03-03T16:03:28;13.50;20.80
12156;DHT22;6141;49.092;8.516;2023-03-03T16:06:00;13.30;21.10
12156;DHT22;6141;49.092;8.516;2023-03-03T16:08:35;13.10;21.00
12156;DHT22;6141;49.092;8.516;2023-03-03T16:11:08;13.00;21.50
12156;DHT22;6141;49.092;8.516;2023-03-03T16:13:40;12.90;22.20
12156;DHT22;6141;49.092;8.516;2023-03-03T16:16:23;12.90;21.90
12156;DHT22;6141;49.092;8.516;2023-03-03T16:18:57;12.90;21.90
12156;DHT22;6141;49.092;8.516;2023-03-03T16:21:32;12.70;22.00
12156;DHT22;6141;49.092;8.516;2023-03-03T16:24:07;12.60;22.30
12156;DHT22;6141;49.092;8.516;2023-03-03T16:26:42;12.50;22.80
12156;DHT22;6141;49.092;8.516;2023-03-03T16:29:24;12.70;22.60
12156;DHT22;6141;49.092;8.516;2023-03-03T16:31:55;12.80;22.80
12156;DHT22;6141;49.092;8.516;2023-03-03T16:34:28;12.90;22.30
12156;DHT22;6141;49.092;8.516;2023-03-03T16:37:00;12.90;22.30
12156;DHT22;6141;49.092;8.516;2023-03-03T16:39:35;13.00;22.20
12156;DHT22;6141;49.092;8.516;2023-03-03T16:42:06;12.90;22.00
12156;DHT22;6141;49.092;8.516;2023-03-03T16:44:41;12.80;21.70
12156;DHT22;6141;49.092;8.516;2023-03-03T16:47:19;12.80;22.30
12156;DHT22;6141;49.092;8.516;2023-03-03T16:49:54;12.80;21.90
12156;DHT22;6141;49.092;8.516;2023-03-03T16:52:28;12.80;22.40